Pagrindinis puslapis
METAR-TAF:

METAR-TAF

Oro uostai :

Terezina, Piauí, Brazilija

platuma: 05-03S, ilguma: 042-49W, Aukštis: 69 m

Dabartinis oras

Ataskaita buvo paskelbta 28 minutes, ne 14:00 UTC
Vėjas 6 kt iš Rytų/Pietryčių
Temperatūra 33°C
Drėgmė 46%
Slėgis 1009 hPa
Matomumas 10 km arba daugiau
Išsisklaidę debesys ne aukštis 3000 ft

METAR: SBTE 171400Z 11006KT 9999 SCT030 33/20 Q1009

Laikas: 11:28 (14:28 UTC)

Prognozė

Ataskaita buvo paskelbta 4 valandos ir 28 minutes, ne 10:00 UTC
Prognozė galioja nuo 17 metu 12 UTC su 17 metu 24 UTC
Vėjas 5 kt iš Rytų/Šiaurės Rytų
Matomumas 10 km arba daugiau
nėra debesų žemiau 1500 m ir nėra kamuolinių lietaus debesų
Tapsmas
nuo 17 metu 15 UTC su 17 metu 17 UTC
Vėjas 5 kt iš Šiaurės
Išsisklaidę debesys ne aukštis 4000 ft
Tapsmas
nuo 17 metu 20 UTC su 17 metu 22 UTC
Vėjas 3 kt iš Šiaurės/Šiaurės Vakarų
Matomumas 10 km arba daugiau
nėra debesų žemiau 1500 m ir nėra kamuolinių lietaus debesų

TAF: SBTE 171000Z 1712/1724 06005KT CAVOK TN31/1712Z TX38/1718Z BECMG 1715/1717 36005KT SCT040 BECMG 1720/1722 33003KT CAVOK RMK PEH

Orai ataskaitas ir orų prognozės (METAR, TAF).

turimą stotys yra geltonos ir raudonos taškus žemėlapyje.

Perkelti pele per norėdami pamatyti stoties vardą.

Tada spustelėkite, norėdami matyti oro stebėjimo ir prognozės.

Norėdami pakeisti žemėlapį: spustelėkite ant žalios mygtukų su juodo kryžiaus žemyn,; žalią mygtuką su brūkšneliu, jei norite nutolinti; arba žalių rodyklių gretimoms žemėlapius.


METAR-TAF: